sensor_id;sensor_type;location;lat;lon;timestamp;pressure;altitude;pressure_sealevel;temperature;humidity
11198;BME280;5655;48.744;9.162;2023-07-31T00:01:55;96235.88;;;17.80;100.00
11198;BME280;5655;48.744;9.162;2023-07-31T00:04:20;96228.69;;;17.69;100.00
11198;BME280;5655;48.744;9.162;2023-07-31T00:06:45;96228.06;;;17.62;100.00
11198;BME280;5655;48.744;9.162;2023-07-31T00:09:11;96226.00;;;17.69;100.00
11198;BME280;5655;48.744;9.162;2023-07-31T00:11:36;96225.59;;;17.44;100.00
11198;BME280;5655;48.744;9.162;2023-07-31T00:14:01;96221.13;;;17.34;100.00
11198;BME280;5655;48.744;9.162;2023-07-31T00:16:27;96214.56;;;17.08;100.00
11198;BME280;5655;48.744;9.162;2023-07-31T00:18:52;96218.44;;;17.07;100.00
11198;BME280;5655;48.744;9.162;2023-07-31T00:21:18;96220.09;;;16.98;100.00
11198;BME280;5655;48.744;9.162;2023-07-31T00:23:43;96213.09;;;17.00;100.00
11198;BME280;5655;48.744;9.162;2023-07-31T00:26:08;96214.56;;;17.05;100.00
11198;BME280;5655;48.744;9.162;2023-07-31T00:28:34;96210.38;;;17.04;100.00
11198;BME280;5655;48.744;9.162;2023-07-31T00:30:59;96217.78;;;16.96;100.00
11198;BME280;5655;48.744;9.162;2023-07-31T00:33:24;96213.06;;;17.04;100.00
11198;BME280;5655;48.744;9.162;2023-07-31T00:35:49;96209.16;;;17.05;100.00
11198;BME280;5655;48.744;9.162;2023-07-31T00:38:15;96207.88;;;17.13;100.00
11198;BME280;5655;48.744;9.162;2023-07-31T00:40:40;96212.84;;;17.18;100.00
11198;BME280;5655;48.744;9.162;2023-07-31T00:43:05;96207.66;;;17.04;100.00
11198;BME280;5655;48.744;9.162;2023-07-31T00:45:31;96208.00;;;17.06;100.00
11198;BME280;5655;48.744;9.162;2023-07-31T00:47:57;96201.47;;;16.76;100.00
11198;BME280;5655;48.744;9.162;2023-07-31T00:50:24;96191.19;;;16.95;100.00
11198;BME280;5655;48.744;9.162;2023-07-31T00:52:50;96197.44;;;17.15;100.00
11198;BME280;5655;48.744;9.162;2023-07-31T00:55:15;96199.06;;;17.09;100.00
11198;BME280;5655;48.744;9.162;2023-07-31T00:57:41;96199.28;;;16.95;100.00
11198;BME280;5655;48.744;9.162;2023-07-31T01:00:07;96203.50;;;16.96;100.00
11198;BME280;5655;48.744;9.162;2023-07-31T01:02:33;96194.47;;;16.79;100.00
11198;BME280;5655;48.744;9.162;2023-07-31T01:04:59;96201.81;;;17.05;100.00
11198;BME280;5655;48.744;9.162;2023-07-31T01:10:16;96196.78;;;17.07;100.00
11198;BME280;5655;48.744;9.162;2023-07-31T01:12:44;96196.28;;;17.16;100.00
11198;BME280;5655;48.744;9.162;2023-07-31T01:15:10;96185.78;;;16.95;100.00
11198;BME280;5655;48.744;9.162;2023-07-31T01:17:37;96187.28;;;16.96;100.00
11198;BME280;5655;48.744;9.162;2023-07-31T01:20:05;96188.41;;;16.98;100.00
11198;BME280;5655;48.744;9.162;2023-07-31T01:25:53;96182.50;;;17.07;100.00
11198;BME280;5655;48.744;9.162;2023-07-31T01:30:58;96170.19;;;16.75;100.00
11198;BME280;5655;48.744;9.162;2023-07-31T01:33:25;96161.66;;;16.47;100.00
11198;BME280;5655;48.744;9.162;2023-07-31T01:35:52;96172.69;;;16.63;100.00
11198;BME280;5655;48.744;9.162;2023-07-31T01:38:21;96166.69;;;16.45;100.00
11198;BME280;5655;48.744;9.162;2023-07-31T01:40:51;96171.63;;;16.84;100.00
11198;BME280;5655;48.744;9.162;2023-07-31T01:43:17;96151.34;;;16.38;100.00
11198;BME280;5655;48.744;9.162;2023-07-31T01:45:42;96161.63;;;16.50;100.00
11198;BME280;5655;48.744;9.162;2023-07-31T01:48:08;96156.09;;;16.27;100.00
11198;BME280;5655;48.744;9.162;2023-07-31T01:50:33;96157.75;;;16.51;100.00
11198;BME280;5655;48.744;9.162;2023-07-31T01:52:58;96150.94;;;16.40;100.00
11198;BME280;5655;48.744;9.162;2023-07-31T01:55:23;96146.63;;;16.46;100.00
11198;BME280;5655;48.744;9.162;2023-07-31T01:57:49;96146.94;;;16.51;100.00
11198;BME280;5655;48.744;9.162;2023-07-31T02:00:14;96141.94;;;16.50;100.00
11198;BME280;5655;48.744;9.162;2023-07-31T02:02:39;96142.44;;;16.71;100.00
11198;BME280;5655;48.744;9.162;2023-07-31T02:05:05;96152.44;;;16.74;100.00
11198;BME280;5655;48.744;9.162;2023-07-31T02:07:30;96145.41;;;16.81;100.00
11198;BME280;5655;48.744;9.162;2023-07-31T02:09:56;96150.66;;;16.64;100.00
11198;BME280;5655;48.744;9.162;2023-07-31T02:12:21;96143.34;;;16.61;100.00
11198;BME280;5655;48.744;9.162;2023-07-31T02:14:47;96135.31;;;16.54;100.00
11198;BME280;5655;48.744;9.162;2023-07-31T02:17:12;96123.34;;;16.55;100.00
11198;BME280;5655;48.744;9.162;2023-07-31T02:19:37;96132.47;;;16.68;100.00
11198;BME280;5655;48.744;9.162;2023-07-31T02:22:03;96129.34;;;16.70;100.00
11198;BME280;5655;48.744;9.162;2023-07-31T02:24:28;96122.19;;;16.56;100.00
11198;BME280;5655;48.744;9.162;2023-07-31T02:26:53;96115.75;;;16.47;100.00
11198;BME280;5655;48.744;9.162;2023-07-31T02:29:19;96112.63;;;16.48;100.00
11198;BME280;5655;48.744;9.162;2023-07-31T02:31:44;96115.88;;;16.36;100.00
11198;BME280;5655;48.744;9.162;2023-07-31T02:34:09;96110.38;;;16.43;100.00
11198;BME280;5655;48.744;9.162;2023-07-31T02:36:34;96119.09;;;16.54;100.00
11198;BME280;5655;48.744;9.162;2023-07-31T02:39:00;96111.28;;;16.33;100.00
11198;BME280;5655;48.744;9.162;2023-07-31T02:41:25;96113.09;;;16.43;100.00
11198;BME280;5655;48.744;9.162;2023-07-31T02:43:50;96116.13;;;16.45;100.00
11198;BME280;5655;48.744;9.162;2023-07-31T02:46:16;96118.75;;;16.52;100.00
11198;BME280;5655;48.744;9.162;2023-07-31T02:48:41;96108.22;;;16.61;100.00
11198;BME280;5655;48.744;9.162;2023-07-31T02:51:06;96117.41;;;16.67;100.00
11198;BME280;5655;48.744;9.162;2023-07-31T02:53:32;96104.72;;;16.64;100.00
11198;BME280;5655;48.744;9.162;2023-07-31T02:55:57;96114.66;;;16.71;100.00
11198;BME280;5655;48.744;9.162;2023-07-31T02:58:22;96103.28;;;16.53;100.00
11198;BME280;5655;48.744;9.162;2023-07-31T03:00:47;96095.59;;;16.51;100.00
11198;BME280;5655;48.744;9.162;2023-07-31T03:03:13;96091.13;;;16.41;100.00
11198;BME280;5655;48.744;9.162;2023-07-31T03:05:38;96089.56;;;16.40;100.00
11198;BME280;5655;48.744;9.162;2023-07-31T03:08:03;96090.06;;;16.35;100.00
11198;BME280;5655;48.744;9.162;2023-07-31T03:10:29;96089.28;;;16.04;100.00
11198;BME280;5655;48.744;9.162;2023-07-31T03:12:54;96085.38;;;16.09;100.00
11198;BME280;5655;48.744;9.162;2023-07-31T03:15:19;96084.00;;;15.94;100.00
11198;BME280;5655;48.744;9.162;2023-07-31T03:17:45;96080.94;;;15.92;100.00
11198;BME280;5655;48.744;9.162;2023-07-31T03:20:10;96094.16;;;16.16;100.00
11198;BME280;5655;48.744;9.162;2023-07-31T03:22:36;96094.47;;;16.18;100.00
11198;BME280;5655;48.744;9.162;2023-07-31T03:25:02;96089.69;;;16.03;100.00
11198;BME280;5655;48.744;9.162;2023-07-31T03:27:27;96093.53;;;16.02;100.00
11198;BME280;5655;48.744;9.162;2023-07-31T03:29:53;96091.13;;;16.11;100.00
11198;BME280;5655;48.744;9.162;2023-07-31T03:32:18;96091.34;;;16.23;100.00
11198;BME280;5655;48.744;9.162;2023-07-31T03:34:43;96088.28;;;16.21;100.00
11198;BME280;5655;48.744;9.162;2023-07-31T03:37:09;96093.28;;;16.23;100.00
11198;BME280;5655;48.744;9.162;2023-07-31T03:39:35;96089.13;;;16.15;100.00
11198;BME280;5655;48.744;9.162;2023-07-31T03:42:00;96088.69;;;16.20;100.00
11198;BME280;5655;48.744;9.162;2023-07-31T03:44:25;96101.38;;;16.23;100.00
11198;BME280;5655;48.744;9.162;2023-07-31T03:46:50;96103.56;;;16.31;100.00
11198;BME280;5655;48.744;9.162;2023-07-31T03:49:16;96102.28;;;16.13;100.00
11198;BME280;5655;48.744;9.162;2023-07-31T03:51:41;96103.00;;;16.17;100.00
11198;BME280;5655;48.744;9.162;2023-07-31T03:54:07;96108.97;;;16.35;100.00
11198;BME280;5655;48.744;9.162;2023-07-31T03:56:33;96111.38;;;16.26;100.00
11198;BME280;5655;48.744;9.162;2023-07-31T03:58:58;96103.28;;;16.26;100.00
11198;BME280;5655;48.744;9.162;2023-07-31T04:01:23;96101.03;;;16.21;100.00
11198;BME280;5655;48.744;9.162;2023-07-31T04:03:48;96106.16;;;16.12;100.00
11198;BME280;5655;48.744;9.162;2023-07-31T04:06:14;96112.28;;;16.16;100.00
11198;BME280;5655;48.744;9.162;2023-07-31T04:08:43;96108.69;;;16.26;100.00
11198;BME280;5655;48.744;9.162;2023-07-31T04:11:08;96111.75;;;16.58;100.00
11198;BME280;5655;48.744;9.162;2023-07-31T04:13:34;96113.38;;;16.52;100.00
11198;BME280;5655;48.744;9.162;2023-07-31T04:15:59;96106.34;;;16.58;100.00
11198;BME280;5655;48.744;9.162;2023-07-31T04:18:25;96109.34;;;16.64;100.00
11198;BME280;5655;48.744;9.162;2023-07-31T04:20:51;96106.09;;;16.76;100.00
11198;BME280;5655;48.744;9.162;2023-07-31T04:23:16;96108.47;;;16.70;100.00
11198;BME280;5655;48.744;9.162;2023-07-31T04:25:41;96103.31;;;16.79;100.00
11198;BME280;5655;48.744;9.162;2023-07-31T04:28:07;96089.00;;;16.83;100.00
11198;BME280;5655;48.744;9.162;2023-07-31T04:30:32;96096.97;;;16.66;100.00
11198;BME280;5655;48.744;9.162;2023-07-31T04:32:58;96097.50;;;17.08;100.00
11198;BME280;5655;48.744;9.162;2023-07-31T04:35:23;96094.88;;;17.01;100.00
11198;BME280;5655;48.744;9.162;2023-07-31T04:37:48;96098.66;;;17.07;100.00
11198;BME280;5655;48.744;9.162;2023-07-31T04:40:15;96105.31;;;17.02;100.00
11198;BME280;5655;48.744;9.162;2023-07-31T04:42:40;96104.91;;;17.04;100.00
11198;BME280;5655;48.744;9.162;2023-07-31T04:45:06;96106.66;;;17.14;100.00
11198;BME280;5655;48.744;9.162;2023-07-31T04:47:31;96116.19;;;17.22;100.00
11198;BME280;5655;48.744;9.162;2023-07-31T04:49:56;96107.78;;;17.16;100.00
11198;BME280;5655;48.744;9.162;2023-07-31T04:52:22;96100.72;;;16.99;100.00
11198;BME280;5655;48.744;9.162;2023-07-31T04:54:47;96101.72;;;17.09;100.00
11198;BME280;5655;48.744;9.162;2023-07-31T04:57:12;96101.72;;;17.09;100.00
11198;BME280;5655;48.744;9.162;2023-07-31T04:59:38;96098.13;;;17.39;100.00
11198;BME280;5655;48.744;9.162;2023-07-31T05:02:03;96108.19;;;17.38;100.00
11198;BME280;5655;48.744;9.162;2023-07-31T05:04:28;96107.22;;;17.48;100.00
11198;BME280;5655;48.744;9.162;2023-07-31T05:06:54;96105.41;;;17.65;100.00
11198;BME280;5655;48.744;9.162;2023-07-31T05:09:19;96108.56;;;17.63;100.00
11198;BME280;5655;48.744;9.162;2023-07-31T05:11:45;96109.94;;;17.72;100.00
11198;BME280;5655;48.744;9.162;2023-07-31T05:14:10;96103.97;;;17.37;100.00
11198;BME280;5655;48.744;9.162;2023-07-31T05:16:35;96103.53;;;17.39;100.00
11198;BME280;5655;48.744;9.162;2023-07-31T05:19:01;96089.72;;;17.33;100.00
11198;BME280;5655;48.744;9.162;2023-07-31T05:21:26;96094.94;;;17.44;100.00
11198;BME280;5655;48.744;9.162;2023-07-31T05:23:51;96096.84;;;17.23;100.00
11198;BME280;5655;48.744;9.162;2023-07-31T05:26:17;96096.16;;;17.43;100.00
11198;BME280;5655;48.744;9.162;2023-07-31T05:28:42;96103.25;;;17.33;100.00
11198;BME280;5655;48.744;9.162;2023-07-31T05:31:08;96095.38;;;17.42;100.00
11198;BME280;5655;48.744;9.162;2023-07-31T05:33:33;96105.16;;;17.59;100.00
11198;BME280;5655;48.744;9.162;2023-07-31T05:35:58;96105.31;;;17.72;100.00
11198;BME280;5655;48.744;9.162;2023-07-31T05:38:24;96089.13;;;17.68;100.00
11198;BME280;5655;48.744;9.162;2023-07-31T05:40:49;96104.59;;;17.68;100.00
11198;BME280;5655;48.744;9.162;2023-07-31T05:43:15;96100.50;;;17.56;100.00
11198;BME280;5655;48.744;9.162;2023-07-31T05:45:42;96110.09;;;18.04;100.00
11198;BME280;5655;48.744;9.162;2023-07-31T05:48:07;96105.03;;;18.06;100.00
11198;BME280;5655;48.744;9.162;2023-07-31T05:50:32;96109.13;;;18.14;100.00
11198;BME280;5655;48.744;9.162;2023-07-31T05:52:58;96097.44;;;18.17;100.00
11198;BME280;5655;48.744;9.162;2023-07-31T05:55:24;96094.25;;;18.22;100.00
11198;BME280;5655;48.744;9.162;2023-07-31T05:57:52;96100.09;;;18.21;100.00
11198;BME280;5655;48.744;9.162;2023-07-31T06:00:17;96098.44;;;18.07;100.00
11198;BME280;5655;48.744;9.162;2023-07-31T06:02:42;96096.19;;;18.41;100.00
11198;BME280;5655;48.744;9.162;2023-07-31T06:05:08;96098.09;;;18.25;100.00
11198;BME280;5655;48.744;9.162;2023-07-31T06:07:33;96099.22;;;18.43;100.00
11198;BME280;5655;48.744;9.162;2023-07-31T06:09:58;96105.63;;;18.89;100.00
11198;BME280;5655;48.744;9.162;2023-07-31T06:12:30;96110.38;;;19.01;100.00
11198;BME280;5655;48.744;9.162;2023-07-31T06:14:56;96110.53;;;18.94;100.00
11198;BME280;5655;48.744;9.162;2023-07-31T06:17:21;96109.16;;;18.86;100.00
11198;BME280;5655;48.744;9.162;2023-07-31T06:19:47;96104.75;;;18.76;100.00
11198;BME280;5655;48.744;9.162;2023-07-31T06:22:12;96115.44;;;18.83;100.00
11198;BME280;5655;48.744;9.162;2023-07-31T06:24:37;96110.41;;;18.81;100.00
11198;BME280;5655;48.744;9.162;2023-07-31T06:27:03;96115.78;;;19.01;100.00
11198;BME280;5655;48.744;9.162;2023-07-31T06:29:29;96116.72;;;19.27;100.00
11198;BME280;5655;48.744;9.162;2023-07-31T06:31:55;96110.13;;;19.44;100.00
11198;BME280;5655;48.744;9.162;2023-07-31T06:34:20;96114.94;;;19.36;100.00
11198;BME280;5655;48.744;9.162;2023-07-31T06:36:45;96117.97;;;19.38;100.00
11198;BME280;5655;48.744;9.162;2023-07-31T06:39:11;96117.97;;;19.38;100.00
11198;BME280;5655;48.744;9.162;2023-07-31T06:41:36;96118.69;;;19.10;100.00
11198;BME280;5655;48.744;9.162;2023-07-31T06:44:01;96110.63;;;19.07;100.00
11198;BME280;5655;48.744;9.162;2023-07-31T06:46:27;96116.72;;;19.27;100.00
11198;BME280;5655;48.744;9.162;2023-07-31T06:48:52;96117.66;;;19.53;100.00
11198;BME280;5655;48.744;9.162;2023-07-31T06:51:18;96123.88;;;19.82;100.00
11198;BME280;5655;48.744;9.162;2023-07-31T06:53:43;96122.78;;;19.79;100.00
11198;BME280;5655;48.744;9.162;2023-07-31T06:56:10;96119.41;;;19.75;100.00
11198;BME280;5655;48.744;9.162;2023-07-31T06:58:35;96133.66;;;19.63;100.00
11198;BME280;5655;48.744;9.162;2023-07-31T07:01:01;96138.03;;;19.89;100.00
11198;BME280;5655;48.744;9.162;2023-07-31T07:03:26;96136.03;;;20.06;100.00
11198;BME280;5655;48.744;9.162;2023-07-31T07:05:52;96139.88;;;20.21;100.00
11198;BME280;5655;48.744;9.162;2023-07-31T07:08:17;96128.03;;;20.28;100.00
11198;BME280;5655;48.744;9.162;2023-07-31T07:10:43;96136.19;;;20.28;100.00
11198;BME280;5655;48.744;9.162;2023-07-31T07:13:08;96128.81;;;20.28;100.00
11198;BME280;5655;48.744;9.162;2023-07-31T07:15:34;96132.75;;;20.27;100.00
11198;BME280;5655;48.744;9.162;2023-07-31T07:18:00;96123.59;;;19.92;100.00
11198;BME280;5655;48.744;9.162;2023-07-31T07:20:25;96126.25;;;20.09;100.00
11198;BME280;5655;48.744;9.162;2023-07-31T07:22:50;96132.06;;;20.23;100.00
11198;BME280;5655;48.744;9.162;2023-07-31T07:25:15;96121.81;;;20.44;100.00
11198;BME280;5655;48.744;9.162;2023-07-31T07:27:41;96127.50;;;20.62;100.00
11198;BME280;5655;48.744;9.162;2023-07-31T07:30:06;96125.44;;;20.91;100.00
11198;BME280;5655;48.744;9.162;2023-07-31T07:32:32;96111.94;;;21.00;100.00
11198;BME280;5655;48.744;9.162;2023-07-31T07:34:57;96123.78;;;20.56;100.00
11198;BME280;5655;48.744;9.162;2023-07-31T07:37:22;96118.47;;;20.65;100.00
11198;BME280;5655;48.744;9.162;2023-07-31T07:39:48;96122.69;;;20.24;100.00
11198;BME280;5655;48.744;9.162;2023-07-31T07:42:13;96112.53;;;20.00;100.00
11198;BME280;5655;48.744;9.162;2023-07-31T07:44:39;96113.84;;;20.08;100.00
11198;BME280;5655;48.744;9.162;2023-07-31T07:47:04;96126.06;;;20.45;100.00
11198;BME280;5655;48.744;9.162;2023-07-31T07:49:35;96123.34;;;20.16;100.00
11198;BME280;5655;48.744;9.162;2023-07-31T07:52:01;96116.44;;;20.27;100.00
11198;BME280;5655;48.744;9.162;2023-07-31T07:54:26;96122.38;;;20.64;100.00
11198;BME280;5655;48.744;9.162;2023-07-31T07:56:52;96110.53;;;20.70;100.00
11198;BME280;5655;48.744;9.162;2023-07-31T07:59:17;96105.09;;;20.70;100.00
11198;BME280;5655;48.744;9.162;2023-07-31T08:01:43;96110.63;;;20.67;100.00
11198;BME280;5655;48.744;9.162;2023-07-31T08:04:08;96116.75;;;20.71;100.00
11198;BME280;5655;48.744;9.162;2023-07-31T08:06:33;96107.59;;;20.77;100.00
11198;BME280;5655;48.744;9.162;2023-07-31T08:08:59;96097.66;;;20.58;100.00
11198;BME280;5655;48.744;9.162;2023-07-31T08:11:25;96081.78;;;20.82;100.00
11198;BME280;5655;48.744;9.162;2023-07-31T08:13:50;96088.97;;;20.89;100.00
11198;BME280;5655;48.744;9.162;2023-07-31T08:16:15;96101.91;;;20.97;100.00
11198;BME280;5655;48.744;9.162;2023-07-31T08:18:41;96098.75;;;20.99;100.00
11198;BME280;5655;48.744;9.162;2023-07-31T08:21:08;96083.53;;;20.89;100.00
11198;BME280;5655;48.744;9.162;2023-07-31T08:23:33;96086.16;;;21.17;100.00
11198;BME280;5655;48.744;9.162;2023-07-31T08:25:59;96089.44;;;21.47;100.00
11198;BME280;5655;48.744;9.162;2023-07-31T08:28:25;96090.59;;;21.24;100.00
11198;BME280;5655;48.744;9.162;2023-07-31T08:30:50;96097.34;;;21.19;100.00
11198;BME280;5655;48.744;9.162;2023-07-31T08:33:16;96092.69;;;21.54;100.00
11198;BME280;5655;48.744;9.162;2023-07-31T08:35:41;96088.53;;;21.03;100.00
11198;BME280;5655;48.744;9.162;2023-07-31T08:38:06;96095.81;;;21.18;100.00
11198;BME280;5655;48.744;9.162;2023-07-31T08:40:32;96090.78;;;21.42;100.00
11198;BME280;5655;48.744;9.162;2023-07-31T08:43:00;96086.34;;;20.98;100.00
11198;BME280;5655;48.744;9.162;2023-07-31T08:45:28;96071.88;;;21.26;100.00
11198;BME280;5655;48.744;9.162;2023-07-31T08:47:54;96059.88;;;21.23;100.00
11198;BME280;5655;48.744;9.162;2023-07-31T08:50:21;96059.69;;;21.05;100.00
11198;BME280;5655;48.744;9.162;2023-07-31T08:52:47;96067.09;;;21.17;100.00
11198;BME280;5655;48.744;9.162;2023-07-31T08:55:13;96065.75;;;21.35;100.00
11198;BME280;5655;48.744;9.162;2023-07-31T08:57:39;96064.28;;;21.77;100.00
11198;BME280;5655;48.744;9.162;2023-07-31T09:00:06;96074.25;;;22.14;100.00
11198;BME280;5655;48.744;9.162;2023-07-31T09:02:39;96076.44;;;21.85;100.00
11198;BME280;5655;48.744;9.162;2023-07-31T09:05:07;96064.22;;;21.90;100.00
11198;BME280;5655;48.744;9.162;2023-07-31T09:07:34;96068.56;;;22.22;100.00
11198;BME280;5655;48.744;9.162;2023-07-31T09:10:00;96052.59;;;22.42;100.00
11198;BME280;5655;48.744;9.162;2023-07-31T09:12:25;96056.50;;;22.10;100.00
11198;BME280;5655;48.744;9.162;2023-07-31T09:14:51;96048.88;;;22.27;100.00
11198;BME280;5655;48.744;9.162;2023-07-31T09:17:30;96057.75;;;22.49;100.00
11198;BME280;5655;48.744;9.162;2023-07-31T09:19:57;96063.31;;;22.36;100.00
11198;BME280;5655;48.744;9.162;2023-07-31T09:22:41;96060.41;;;22.61;100.00
11198;BME280;5655;48.744;9.162;2023-07-31T09:25:21;96073.56;;;22.01;100.00
11198;BME280;5655;48.744;9.162;2023-07-31T09:30:12;96054.06;;;22.34;100.00
11198;BME280;5655;48.744;9.162;2023-07-31T09:32:38;96060.34;;;22.52;100.00
11198;BME280;5655;48.744;9.162;2023-07-31T09:37:38;96055.56;;;22.26;100.00
11198;BME280;5655;48.744;9.162;2023-07-31T09:40:04;96059.00;;;21.61;100.00
11198;BME280;5655;48.744;9.162;2023-07-31T09:42:29;96052.00;;;21.94;100.00
11198;BME280;5655;48.744;9.162;2023-07-31T09:45:09;96047.59;;;21.75;100.00
11198;BME280;5655;48.744;9.162;2023-07-31T09:47:35;96046.78;;;21.65;100.00
11198;BME280;5655;48.744;9.162;2023-07-31T09:50:00;96032.09;;;22.06;100.00
11198;BME280;5655;48.744;9.162;2023-07-31T09:52:26;96029.25;;;22.41;100.00
11198;BME280;5655;48.744;9.162;2023-07-31T09:54:52;96022.66;;;22.91;100.00
11198;BME280;5655;48.744;9.162;2023-07-31T09:57:17;96017.03;;;22.94;100.00
11198;BME280;5655;48.744;9.162;2023-07-31T09:59:48;96017.06;;;23.03;100.00
11198;BME280;5655;48.744;9.162;2023-07-31T10:02:21;96014.16;;;22.98;100.00
11198;BME280;5655;48.744;9.162;2023-07-31T10:04:49;96017.59;;;22.80;100.00
11198;BME280;5655;48.744;9.162;2023-07-31T10:07:17;96014.56;;;22.87;100.00
11198;BME280;5655;48.744;9.162;2023-07-31T10:09:44;95996.44;;;22.62;100.00
11198;BME280;5655;48.744;9.162;2023-07-31T10:12:10;95999.09;;;22.75;100.00
11198;BME280;5655;48.744;9.162;2023-07-31T10:14:38;96000.97;;;23.05;100.00
11198;BME280;5655;48.744;9.162;2023-07-31T10:17:05;95998.22;;;22.47;100.00
11198;BME280;5655;48.744;9.162;2023-07-31T10:19:31;95994.31;;;23.16;100.00
11198;BME280;5655;48.744;9.162;2023-07-31T10:21:57;95989.59;;;23.07;100.00
11198;BME280;5655;48.744;9.162;2023-07-31T10:24:24;95993.13;;;23.44;100.00
11198;BME280;5655;48.744;9.162;2023-07-31T10:26:52;95989.28;;;23.05;100.00
11198;BME280;5655;48.744;9.162;2023-07-31T10:29:18;95988.25;;;23.12;100.00
11198;BME280;5655;48.744;9.162;2023-07-31T10:31:45;95992.34;;;23.16;100.00
11198;BME280;5655;48.744;9.162;2023-07-31T10:34:11;95991.50;;;22.79;100.00
11198;BME280;5655;48.744;9.162;2023-07-31T10:36:36;95982.31;;;22.95;100.00
11198;BME280;5655;48.744;9.162;2023-07-31T10:39:04;95971.72;;;23.33;100.00
11198;BME280;5655;48.744;9.162;2023-07-31T10:41:30;95966.41;;;23.66;100.00
11198;BME280;5655;48.744;9.162;2023-07-31T10:44:02;95967.03;;;24.12;100.00
11198;BME280;5655;48.744;9.162;2023-07-31T10:46:28;95973.38;;;23.67;100.00
11198;BME280;5655;48.744;9.162;2023-07-31T10:49:01;95971.03;;;24.02;100.00
11198;BME280;5655;48.744;9.162;2023-07-31T10:51:34;95979.69;;;24.01;100.00
11198;BME280;5655;48.744;9.162;2023-07-31T10:54:13;95977.53;;;24.14;100.00
11198;BME280;5655;48.744;9.162;2023-07-31T10:56:46;95976.72;;;23.62;100.00
11198;BME280;5655;48.744;9.162;2023-07-31T10:59:11;95970.50;;;23.71;100.00
11198;BME280;5655;48.744;9.162;2023-07-31T11:01:54;95977.50;;;23.63;100.00
11198;BME280;5655;48.744;9.162;2023-07-31T11:04:26;95961.69;;;23.76;100.00
11198;BME280;5655;48.744;9.162;2023-07-31T11:06:59;95964.25;;;23.79;100.00
11198;BME280;5655;48.744;9.162;2023-07-31T11:09:28;95972.63;;;23.58;100.00
11198;BME280;5655;48.744;9.162;2023-07-31T11:11:55;95969.28;;;23.17;100.00
11198;BME280;5655;48.744;9.162;2023-07-31T11:14:21;95962.47;;;23.49;100.00
11198;BME280;5655;48.744;9.162;2023-07-31T11:16:49;95964.91;;;23.47;100.00
11198;BME280;5655;48.744;9.162;2023-07-31T11:19:21;95964.25;;;23.43;100.00
11198;BME280;5655;48.744;9.162;2023-07-31T11:21:47;95961.25;;;23.41;100.00
11198;BME280;5655;48.744;9.162;2023-07-31T11:24:13;95963.22;;;23.68;100.00
11198;BME280;5655;48.744;9.162;2023-07-31T11:26:38;95967.47;;;23.41;100.00
11198;BME280;5655;48.744;9.162;2023-07-31T11:29:11;95955.75;;;23.77;100.00
11198;BME280;5655;48.744;9.162;2023-07-31T11:31:42;95957.00;;;23.49;100.00
11198;BME280;5655;48.744;9.162;2023-07-31T11:34:08;95968.53;;;23.71;100.00
11198;BME280;5655;48.744;9.162;2023-07-31T11:36:33;95961.09;;;22.99;100.00
11198;BME280;5655;48.744;9.162;2023-07-31T11:39:06;95965.19;;;23.03;100.00
11198;BME280;5655;48.744;9.162;2023-07-31T11:41:31;95967.50;;;23.60;100.00
11198;BME280;5655;48.744;9.162;2023-07-31T11:44:00;95972.16;;;23.32;100.00
11198;BME280;5655;48.744;9.162;2023-07-31T11:46:26;95956.84;;;23.52;100.00
11198;BME280;5655;48.744;9.162;2023-07-31T11:48:51;95949.13;;;23.51;100.00
11198;BME280;5655;48.744;9.162;2023-07-31T11:51:16;95950.78;;;23.58;100.00
11198;BME280;5655;48.744;9.162;2023-07-31T11:53:47;95942.41;;;23.61;100.00
11198;BME280;5655;48.744;9.162;2023-07-31T11:56:20;95945.69;;;23.92;100.00
11198;BME280;5655;48.744;9.162;2023-07-31T11:58:47;95934.97;;;23.71;100.00
11198;BME280;5655;48.744;9.162;2023-07-31T12:01:14;95921.44;;;23.76;100.00
11198;BME280;5655;48.744;9.162;2023-07-31T12:03:41;95924.19;;;23.67;100.00
11198;BME280;5655;48.744;9.162;2023-07-31T12:06:08;95910.53;;;23.67;100.00
11198;BME280;5655;48.744;9.162;2023-07-31T12:08:33;95918.72;;;23.76;100.00
11198;BME280;5655;48.744;9.162;2023-07-31T12:11:04;95912.97;;;23.65;100.00
11198;BME280;5655;48.744;9.162;2023-07-31T12:13:31;95916.84;;;23.91;100.00
11198;BME280;5655;48.744;9.162;2023-07-31T12:15:58;95907.66;;;24.04;100.00
11198;BME280;5655;48.744;9.162;2023-07-31T12:18:25;95910.59;;;23.03;100.00
11198;BME280;5655;48.744;9.162;2023-07-31T12:20:56;95901.47;;;23.25;100.00
11198;BME280;5655;48.744;9.162;2023-07-31T12:23:26;95915.25;;;23.21;100.00
11198;BME280;5655;48.744;9.162;2023-07-31T12:28:26;95906.63;;;23.23;100.00
11198;BME280;5655;48.744;9.162;2023-07-31T12:30:57;95897.66;;;23.59;100.00
11198;BME280;5655;48.744;9.162;2023-07-31T12:33:23;95899.41;;;23.80;100.00
11198;BME280;5655;48.744;9.162;2023-07-31T12:35:49;95904.72;;;23.83;100.00
11198;BME280;5655;48.744;9.162;2023-07-31T12:38:14;95893.53;;;23.72;100.00
11198;BME280;5655;48.744;9.162;2023-07-31T12:40:40;95899.69;;;23.82;100.00
11198;BME280;5655;48.744;9.162;2023-07-31T12:43:07;95884.44;;;23.39;100.00
11198;BME280;5655;48.744;9.162;2023-07-31T12:45:33;95891.28;;;23.34;100.00
11198;BME280;5655;48.744;9.162;2023-07-31T12:47:59;95890.22;;;23.41;100.00
11198;BME280;5655;48.744;9.162;2023-07-31T12:50:24;95874.09;;;23.43;100.00
11198;BME280;5655;48.744;9.162;2023-07-31T12:52:51;95884.75;;;23.59;100.00
11198;BME280;5655;48.744;9.162;2023-07-31T12:55:16;95875.81;;;23.49;100.00
11198;BME280;5655;48.744;9.162;2023-07-31T12:57:43;95867.28;;;23.57;100.00
11198;BME280;5655;48.744;9.162;2023-07-31T13:00:09;95866.84;;;23.40;100.00
11198;BME280;5655;48.744;9.162;2023-07-31T13:02:34;95854.94;;;23.70;100.00
11198;BME280;5655;48.744;9.162;2023-07-31T13:04:59;95855.47;;;23.92;100.00
11198;BME280;5655;48.744;9.162;2023-07-31T13:07:25;95851.56;;;23.84;100.00
11198;BME280;5655;48.744;9.162;2023-07-31T13:09:51;95845.00;;;23.91;100.00
11198;BME280;5655;48.744;9.162;2023-07-31T13:12:16;95849.25;;;23.32;100.00